sensor_id;sensor_type;location;lat;lon;timestamp;P1;durP1;ratioP1;P2;durP2;ratioP2
3131;SDS011;62090;52.330;9.104;2022-11-15T00:01:40;10.63;;;7.90;;
3131;SDS011;62090;52.330;9.104;2022-11-15T00:04:28;9.83;;;7.77;;
3131;SDS011;62090;52.330;9.104;2022-11-15T00:07:18;9.73;;;7.50;;
3131;SDS011;62090;52.330;9.104;2022-11-15T00:10:26;10.93;;;7.30;;
3131;SDS011;62090;52.330;9.104;2022-11-15T00:13:16;9.07;;;7.70;;
3131;SDS011;62090;52.330;9.104;2022-11-15T00:16:06;10.27;;;7.60;;
3131;SDS011;62090;52.330;9.104;2022-11-15T00:18:57;13.30;;;7.27;;
3131;SDS011;62090;52.330;9.104;2022-11-15T00:21:45;10.67;;;7.30;;
3131;SDS011;62090;52.330;9.104;2022-11-15T00:24:35;12.70;;;8.70;;
3131;SDS011;62090;52.330;9.104;2022-11-15T00:27:24;12.77;;;8.60;;
3131;SDS011;62090;52.330;9.104;2022-11-15T00:30:13;13.60;;;7.60;;
3131;SDS011;62090;52.330;9.104;2022-11-15T00:33:02;12.30;;;7.20;;
3131;SDS011;62090;52.330;9.104;2022-11-15T00:35:55;9.23;;;6.60;;
3131;SDS011;62090;52.330;9.104;2022-11-15T00:38:47;10.30;;;7.10;;
3131;SDS011;62090;52.330;9.104;2022-11-15T00:41:36;10.23;;;7.23;;
3131;SDS011;62090;52.330;9.104;2022-11-15T00:44:24;10.00;;;6.80;;
3131;SDS011;62090;52.330;9.104;2022-11-15T00:47:12;8.93;;;6.40;;
3131;SDS011;62090;52.330;9.104;2022-11-15T00:50:00;9.97;;;6.67;;
3131;SDS011;62090;52.330;9.104;2022-11-15T00:52:51;11.40;;;8.07;;
3131;SDS011;62090;52.330;9.104;2022-11-15T00:55:40;8.70;;;7.23;;
3131;SDS011;62090;52.330;9.104;2022-11-15T00:58:28;14.20;;;7.07;;
3131;SDS011;62090;52.330;9.104;2022-11-15T01:01:16;12.40;;;6.80;;
3131;SDS011;62090;52.330;9.104;2022-11-15T01:04:05;10.07;;;7.50;;
3131;SDS011;62090;52.330;9.104;2022-11-15T01:06:54;11.17;;;6.83;;
3131;SDS011;62090;52.330;9.104;2022-11-15T01:09:44;10.47;;;7.23;;
3131;SDS011;62090;52.330;9.104;2022-11-15T01:12:33;14.27;;;7.70;;
3131;SDS011;62090;52.330;9.104;2022-11-15T01:15:21;18.03;;;7.50;;
3131;SDS011;62090;52.330;9.104;2022-11-15T01:18:09;19.13;;;7.80;;
3131;SDS011;62090;52.330;9.104;2022-11-15T01:20:58;9.67;;;7.07;;
3131;SDS011;62090;52.330;9.104;2022-11-15T01:23:46;10.33;;;7.20;;
3131;SDS011;62090;52.330;9.104;2022-11-15T01:26:37;14.27;;;7.30;;
3131;SDS011;62090;52.330;9.104;2022-11-15T01:29:25;13.37;;;7.27;;
3131;SDS011;62090;52.330;9.104;2022-11-15T01:32:13;13.97;;;6.80;;
3131;SDS011;62090;52.330;9.104;2022-11-15T01:35:02;13.87;;;7.97;;
3131;SDS011;62090;52.330;9.104;2022-11-15T01:37:51;12.10;;;8.50;;
3131;SDS011;62090;52.330;9.104;2022-11-15T01:40:39;11.13;;;7.27;;
3131;SDS011;62090;52.330;9.104;2022-11-15T01:43:30;9.97;;;7.93;;
3131;SDS011;62090;52.330;9.104;2022-11-15T01:46:25;12.10;;;7.90;;
3131;SDS011;62090;52.330;9.104;2022-11-15T01:49:17;13.10;;;7.53;;
3131;SDS011;62090;52.330;9.104;2022-11-15T01:52:09;17.67;;;9.10;;
3131;SDS011;62090;52.330;9.104;2022-11-15T01:55:02;16.20;;;8.53;;
3131;SDS011;62090;52.330;9.104;2022-11-15T01:57:53;12.40;;;7.93;;
3131;SDS011;62090;52.330;9.104;2022-11-15T02:00:47;15.27;;;9.17;;
3131;SDS011;62090;52.330;9.104;2022-11-15T02:03:39;13.90;;;8.60;;
3131;SDS011;62090;52.330;9.104;2022-11-15T02:06:34;14.17;;;8.90;;
3131;SDS011;62090;52.330;9.104;2022-11-15T02:09:24;15.27;;;9.33;;
3131;SDS011;62090;52.330;9.104;2022-11-15T02:12:13;13.60;;;8.33;;
3131;SDS011;62090;52.330;9.104;2022-11-15T02:15:05;17.47;;;10.67;;
3131;SDS011;62090;52.330;9.104;2022-11-15T02:18:02;13.10;;;8.17;;
3131;SDS011;62090;52.330;9.104;2022-11-15T02:21:02;15.80;;;9.30;;
3131;SDS011;62090;52.330;9.104;2022-11-15T02:24:07;13.53;;;9.20;;
3131;SDS011;62090;52.330;9.104;2022-11-15T02:30:29;18.23;;;9.13;;
3131;SDS011;62090;52.330;9.104;2022-11-15T02:33:28;18.43;;;10.80;;
3131;SDS011;62090;52.330;9.104;2022-11-15T02:36:28;22.00;;;10.00;;
3131;SDS011;62090;52.330;9.104;2022-11-15T02:39:25;13.53;;;9.77;;
3131;SDS011;62090;52.330;9.104;2022-11-15T02:42:21;12.40;;;9.50;;
3131;SDS011;62090;52.330;9.104;2022-11-15T02:45:30;19.07;;;9.83;;
3131;SDS011;62090;52.330;9.104;2022-11-15T02:48:23;15.93;;;10.17;;
3131;SDS011;62090;52.330;9.104;2022-11-15T02:51:13;20.47;;;10.90;;
3131;SDS011;62090;52.330;9.104;2022-11-15T02:54:04;18.50;;;10.27;;
3131;SDS011;62090;52.330;9.104;2022-11-15T02:56:53;16.87;;;9.97;;
3131;SDS011;62090;52.330;9.104;2022-11-15T03:00:01;16.50;;;10.30;;
3131;SDS011;62090;52.330;9.104;2022-11-15T03:02:59;15.83;;;9.90;;
3131;SDS011;62090;52.330;9.104;2022-11-15T03:06:11;18.90;;;11.23;;
3131;SDS011;62090;52.330;9.104;2022-11-15T03:09:09;18.93;;;10.70;;
3131;SDS011;62090;52.330;9.104;2022-11-15T03:12:07;16.23;;;10.17;;
3131;SDS011;62090;52.330;9.104;2022-11-15T03:15:01;18.83;;;10.77;;
3131;SDS011;62090;52.330;9.104;2022-11-15T03:17:55;18.23;;;11.10;;
3131;SDS011;62090;52.330;9.104;2022-11-15T03:20:50;16.87;;;10.83;;
3131;SDS011;62090;52.330;9.104;2022-11-15T03:23:39;17.43;;;10.47;;
3131;SDS011;62090;52.330;9.104;2022-11-15T03:26:28;13.40;;;10.17;;
3131;SDS011;62090;52.330;9.104;2022-11-15T03:29:18;19.87;;;10.53;;
3131;SDS011;62090;52.330;9.104;2022-11-15T03:32:11;15.47;;;10.40;;
3131;SDS011;62090;52.330;9.104;2022-11-15T03:35:07;16.50;;;10.67;;
3131;SDS011;62090;52.330;9.104;2022-11-15T03:38:00;27.73;;;11.20;;
3131;SDS011;62090;52.330;9.104;2022-11-15T03:40:59;15.03;;;10.50;;
3131;SDS011;62090;52.330;9.104;2022-11-15T03:43:50;16.60;;;10.90;;
3131;SDS011;62090;52.330;9.104;2022-11-15T03:46:46;21.90;;;11.33;;
3131;SDS011;62090;52.330;9.104;2022-11-15T03:49:40;21.27;;;11.87;;
3131;SDS011;62090;52.330;9.104;2022-11-15T03:52:35;15.93;;;10.40;;
3131;SDS011;62090;52.330;9.104;2022-11-15T03:55:23;18.10;;;11.33;;
3131;SDS011;62090;52.330;9.104;2022-11-15T03:58:12;20.00;;;10.20;;
3131;SDS011;62090;52.330;9.104;2022-11-15T04:01:00;23.60;;;10.63;;
3131;SDS011;62090;52.330;9.104;2022-11-15T04:03:50;13.47;;;9.70;;
3131;SDS011;62090;52.330;9.104;2022-11-15T04:06:38;16.90;;;11.60;;
3131;SDS011;62090;52.330;9.104;2022-11-15T04:09:29;17.47;;;10.63;;
3131;SDS011;62090;52.330;9.104;2022-11-15T04:12:17;17.20;;;10.57;;
3131;SDS011;62090;52.330;9.104;2022-11-15T04:15:16;13.23;;;9.60;;
3131;SDS011;62090;52.330;9.104;2022-11-15T04:18:06;15.70;;;10.10;;
3131;SDS011;62090;52.330;9.104;2022-11-15T04:20:54;22.30;;;10.77;;
3131;SDS011;62090;52.330;9.104;2022-11-15T04:23:55;14.33;;;9.90;;
3131;SDS011;62090;52.330;9.104;2022-11-15T04:26:58;15.10;;;10.37;;
3131;SDS011;62090;52.330;9.104;2022-11-15T04:29:47;12.73;;;9.10;;
3131;SDS011;62090;52.330;9.104;2022-11-15T04:32:35;17.60;;;10.53;;
3131;SDS011;62090;52.330;9.104;2022-11-15T04:35:24;12.70;;;9.33;;
3131;SDS011;62090;52.330;9.104;2022-11-15T04:38:12;18.33;;;10.30;;
3131;SDS011;62090;52.330;9.104;2022-11-15T04:41:00;15.40;;;10.43;;
3131;SDS011;62090;52.330;9.104;2022-11-15T04:43:51;18.97;;;8.80;;
3131;SDS011;62090;52.330;9.104;2022-11-15T04:46:40;18.17;;;10.17;;
3131;SDS011;62090;52.330;9.104;2022-11-15T04:49:28;14.30;;;8.90;;
3131;SDS011;62090;52.330;9.104;2022-11-15T04:52:16;14.23;;;8.80;;
3131;SDS011;62090;52.330;9.104;2022-11-15T04:55:05;12.97;;;9.50;;
3131;SDS011;62090;52.330;9.104;2022-11-15T04:57:57;19.93;;;10.30;;
3131;SDS011;62090;52.330;9.104;2022-11-15T05:00:49;13.10;;;9.47;;
3131;SDS011;62090;52.330;9.104;2022-11-15T05:03:38;16.37;;;9.30;;
3131;SDS011;62090;52.330;9.104;2022-11-15T05:06:38;11.70;;;9.20;;
3131;SDS011;62090;52.330;9.104;2022-11-15T05:09:26;13.33;;;9.43;;
3131;SDS011;62090;52.330;9.104;2022-11-15T05:12:14;19.30;;;9.23;;
3131;SDS011;62090;52.330;9.104;2022-11-15T05:15:03;11.73;;;7.97;;
3131;SDS011;62090;52.330;9.104;2022-11-15T05:17:59;14.13;;;8.90;;
3131;SDS011;62090;52.330;9.104;2022-11-15T05:20:48;15.13;;;8.97;;
3131;SDS011;62090;52.330;9.104;2022-11-15T05:23:36;16.50;;;9.77;;
3131;SDS011;62090;52.330;9.104;2022-11-15T05:26:24;16.30;;;9.30;;
3131;SDS011;62090;52.330;9.104;2022-11-15T05:29:13;14.37;;;8.20;;
3131;SDS011;62090;52.330;9.104;2022-11-15T05:32:02;14.60;;;8.80;;
3131;SDS011;62090;52.330;9.104;2022-11-15T05:34:55;12.20;;;8.00;;
3131;SDS011;62090;52.330;9.104;2022-11-15T05:37:44;12.23;;;7.60;;
3131;SDS011;62090;52.330;9.104;2022-11-15T05:40:32;16.33;;;8.13;;
3131;SDS011;62090;52.330;9.104;2022-11-15T05:43:22;10.00;;;8.03;;
3131;SDS011;62090;52.330;9.104;2022-11-15T05:46:11;10.47;;;7.90;;
3131;SDS011;62090;52.330;9.104;2022-11-15T05:49:01;11.80;;;8.77;;
3131;SDS011;62090;52.330;9.104;2022-11-15T05:51:52;9.40;;;7.50;;
3131;SDS011;62090;52.330;9.104;2022-11-15T05:54:41;10.47;;;7.70;;
3131;SDS011;62090;52.330;9.104;2022-11-15T05:57:30;16.17;;;8.03;;
3131;SDS011;62090;52.330;9.104;2022-11-15T06:00:19;12.00;;;7.00;;
3131;SDS011;62090;52.330;9.104;2022-11-15T06:03:07;11.70;;;7.60;;
3131;SDS011;62090;52.330;9.104;2022-11-15T06:05:56;10.27;;;6.40;;
3131;SDS011;62090;52.330;9.104;2022-11-15T06:08:47;12.50;;;7.60;;
3131;SDS011;62090;52.330;9.104;2022-11-15T06:11:35;13.43;;;8.00;;
3131;SDS011;62090;52.330;9.104;2022-11-15T06:14:25;13.87;;;7.20;;
3131;SDS011;62090;52.330;9.104;2022-11-15T06:17:13;13.30;;;7.00;;
3131;SDS011;62090;52.330;9.104;2022-11-15T06:20:01;11.30;;;6.93;;
3131;SDS011;62090;52.330;9.104;2022-11-15T06:22:50;9.90;;;6.10;;
3131;SDS011;62090;52.330;9.104;2022-11-15T06:25:41;10.00;;;7.10;;
3131;SDS011;62090;52.330;9.104;2022-11-15T06:28:31;9.77;;;6.53;;
3131;SDS011;62090;52.330;9.104;2022-11-15T06:31:22;16.20;;;7.40;;
3131;SDS011;62090;52.330;9.104;2022-11-15T06:34:12;11.60;;;7.90;;
3131;SDS011;62090;52.330;9.104;2022-11-15T06:37:02;15.40;;;7.37;;
3131;SDS011;62090;52.330;9.104;2022-11-15T06:39:51;12.73;;;8.27;;
3131;SDS011;62090;52.330;9.104;2022-11-15T06:42:43;13.50;;;6.70;;
3131;SDS011;62090;52.330;9.104;2022-11-15T06:45:31;12.50;;;7.60;;
3131;SDS011;62090;52.330;9.104;2022-11-15T06:48:21;11.70;;;7.50;;
3131;SDS011;62090;52.330;9.104;2022-11-15T06:51:11;11.77;;;6.67;;
3131;SDS011;62090;52.330;9.104;2022-11-15T06:54:01;10.57;;;6.80;;
3131;SDS011;62090;52.330;9.104;2022-11-15T06:56:51;10.40;;;7.40;;
3131;SDS011;62090;52.330;9.104;2022-11-15T06:59:43;11.73;;;7.17;;
3131;SDS011;62090;52.330;9.104;2022-11-15T07:02:33;11.00;;;7.10;;
3131;SDS011;62090;52.330;9.104;2022-11-15T07:05:25;9.50;;;7.53;;
3131;SDS011;62090;52.330;9.104;2022-11-15T07:08:15;13.53;;;8.03;;
3131;SDS011;62090;52.330;9.104;2022-11-15T07:11:05;10.43;;;7.37;;
3131;SDS011;62090;52.330;9.104;2022-11-15T07:13:57;10.17;;;7.07;;
3131;SDS011;62090;52.330;9.104;2022-11-15T07:16:48;27.77;;;8.17;;
3131;SDS011;62090;52.330;9.104;2022-11-15T07:19:36;11.27;;;7.80;;
3131;SDS011;62090;52.330;9.104;2022-11-15T07:22:25;9.03;;;6.50;;
3131;SDS011;62090;52.330;9.104;2022-11-15T07:25:15;8.93;;;6.53;;
3131;SDS011;62090;52.330;9.104;2022-11-15T07:28:04;9.90;;;6.37;;
3131;SDS011;62090;52.330;9.104;2022-11-15T07:30:55;7.50;;;6.70;;
3131;SDS011;62090;52.330;9.104;2022-11-15T07:33:48;9.80;;;6.07;;
3131;SDS011;62090;52.330;9.104;2022-11-15T07:36:37;8.70;;;5.93;;
3131;SDS011;62090;52.330;9.104;2022-11-15T07:39:29;8.33;;;5.50;;
3131;SDS011;62090;52.330;9.104;2022-11-15T07:42:18;7.10;;;5.03;;
3131;SDS011;62090;52.330;9.104;2022-11-15T07:45:21;5.93;;;4.90;;
3131;SDS011;62090;52.330;9.104;2022-11-15T07:48:11;7.53;;;5.30;;
3131;SDS011;62090;52.330;9.104;2022-11-15T07:51:03;7.80;;;5.97;;
3131;SDS011;62090;52.330;9.104;2022-11-15T07:54:00;10.73;;;6.60;;
3131;SDS011;62090;52.330;9.104;2022-11-15T07:56:49;7.90;;;5.10;;
3131;SDS011;62090;52.330;9.104;2022-11-15T07:59:42;13.80;;;5.63;;
3131;SDS011;62090;52.330;9.104;2022-11-15T08:02:31;6.20;;;4.63;;
3131;SDS011;62090;52.330;9.104;2022-11-15T08:05:22;16.30;;;4.87;;
3131;SDS011;62090;52.330;9.104;2022-11-15T08:08:14;8.20;;;4.30;;
3131;SDS011;62090;52.330;9.104;2022-11-15T08:11:04;6.77;;;4.27;;
3131;SDS011;62090;52.330;9.104;2022-11-15T08:13:54;11.73;;;4.70;;
3131;SDS011;62090;52.330;9.104;2022-11-15T08:16:43;7.80;;;4.03;;
3131;SDS011;62090;52.330;9.104;2022-11-15T08:19:31;8.30;;;4.90;;
3131;SDS011;62090;52.330;9.104;2022-11-15T08:22:20;12.33;;;4.30;;
3131;SDS011;62090;52.330;9.104;2022-11-15T08:25:10;9.63;;;4.07;;
3131;SDS011;62090;52.330;9.104;2022-11-15T08:28:00;8.90;;;4.13;;
3131;SDS011;62090;52.330;9.104;2022-11-15T08:30:50;6.20;;;4.23;;
3131;SDS011;62090;52.330;9.104;2022-11-15T08:33:40;5.50;;;4.10;;
3131;SDS011;62090;52.330;9.104;2022-11-15T08:36:30;5.83;;;3.73;;
3131;SDS011;62090;52.330;9.104;2022-11-15T08:39:30;8.40;;;4.40;;
3131;SDS011;62090;52.330;9.104;2022-11-15T08:42:23;5.73;;;3.63;;
3131;SDS011;62090;52.330;9.104;2022-11-15T08:45:14;4.77;;;3.70;;
3131;SDS011;62090;52.330;9.104;2022-11-15T08:48:03;7.50;;;4.50;;
3131;SDS011;62090;52.330;9.104;2022-11-15T08:50:53;6.67;;;4.30;;
3131;SDS011;62090;52.330;9.104;2022-11-15T08:53:43;9.80;;;3.87;;
3131;SDS011;62090;52.330;9.104;2022-11-15T08:56:32;5.13;;;3.73;;
3131;SDS011;62090;52.330;9.104;2022-11-15T08:59:24;8.47;;;4.50;;
3131;SDS011;62090;52.330;9.104;2022-11-15T09:02:13;4.97;;;3.40;;
3131;SDS011;62090;52.330;9.104;2022-11-15T09:05:03;6.37;;;4.07;;
3131;SDS011;62090;52.330;9.104;2022-11-15T09:07:52;6.83;;;4.00;;
3131;SDS011;62090;52.330;9.104;2022-11-15T09:10:42;5.23;;;3.60;;
3131;SDS011;62090;52.330;9.104;2022-11-15T09:13:31;5.03;;;3.50;;
3131;SDS011;62090;52.330;9.104;2022-11-15T09:16:27;4.93;;;3.53;;
3131;SDS011;62090;52.330;9.104;2022-11-15T09:19:16;7.80;;;4.03;;
3131;SDS011;62090;52.330;9.104;2022-11-15T09:22:07;4.83;;;3.20;;
3131;SDS011;62090;52.330;9.104;2022-11-15T09:24:56;6.50;;;3.40;;
3131;SDS011;62090;52.330;9.104;2022-11-15T09:27:45;8.40;;;3.77;;
3131;SDS011;62090;52.330;9.104;2022-11-15T09:30:34;5.77;;;3.43;;
3131;SDS011;62090;52.330;9.104;2022-11-15T09:33:27;8.07;;;3.90;;
3131;SDS011;62090;52.330;9.104;2022-11-15T09:36:16;8.10;;;3.17;;
3131;SDS011;62090;52.330;9.104;2022-11-15T09:39:04;4.90;;;3.27;;
3131;SDS011;62090;52.330;9.104;2022-11-15T09:41:58;6.40;;;3.60;;
3131;SDS011;62090;52.330;9.104;2022-11-15T09:45:10;5.77;;;3.50;;
3131;SDS011;62090;52.330;9.104;2022-11-15T09:48:10;5.83;;;3.60;;
3131;SDS011;62090;52.330;9.104;2022-11-15T09:51:12;3.80;;;3.00;;
3131;SDS011;62090;52.330;9.104;2022-11-15T09:53:47;4.17;;;3.27;;
3131;SDS011;62090;52.330;9.104;2022-11-15T09:56:43;7.00;;;4.10;;
3131;SDS011;62090;52.330;9.104;2022-11-15T09:59:25;7.60;;;3.60;;
3131;SDS011;62090;52.330;9.104;2022-11-15T10:02:12;6.10;;;2.80;;
3131;SDS011;62090;52.330;9.104;2022-11-15T10:04:53;6.57;;;3.07;;
3131;SDS011;62090;52.330;9.104;2022-11-15T10:07:27;5.13;;;3.13;;
3131;SDS011;62090;52.330;9.104;2022-11-15T10:10:09;4.07;;;3.00;;
3131;SDS011;62090;52.330;9.104;2022-11-15T10:12:47;6.10;;;3.00;;
3131;SDS011;62090;52.330;9.104;2022-11-15T10:15:20;4.50;;;3.23;;
3131;SDS011;62090;52.330;9.104;2022-11-15T10:18:03;6.20;;;3.00;;
3131;SDS011;62090;52.330;9.104;2022-11-15T10:20:41;5.67;;;2.83;;
3131;SDS011;62090;52.330;9.104;2022-11-15T10:23:19;4.43;;;2.90;;
3131;SDS011;62090;52.330;9.104;2022-11-15T10:25:52;4.90;;;3.30;;
3131;SDS011;62090;52.330;9.104;2022-11-15T10:28:33;4.70;;;2.77;;
3131;SDS011;62090;52.330;9.104;2022-11-15T10:31:10;7.60;;;2.00;;
3131;SDS011;62090;52.330;9.104;2022-11-15T10:33:56;2.60;;;2.40;;
3131;SDS011;62090;52.330;9.104;2022-11-15T10:36:41;5.00;;;2.40;;
3131;SDS011;62090;52.330;9.104;2022-11-15T10:39:19;3.20;;;2.10;;
3131;SDS011;62090;52.330;9.104;2022-11-15T10:41:50;3.10;;;2.30;;
3131;SDS011;62090;52.330;9.104;2022-11-15T10:44:22;3.53;;;2.77;;
3131;SDS011;62090;52.330;9.104;2022-11-15T10:49:55;4.00;;;2.17;;
3131;SDS011;62090;52.330;9.104;2022-11-15T10:52:30;5.27;;;2.53;;
3131;SDS011;62090;52.330;9.104;2022-11-15T10:55:19;2.57;;;1.97;;
3131;SDS011;62090;52.330;9.104;2022-11-15T10:57:54;4.80;;;2.13;;
3131;SDS011;62090;52.330;9.104;2022-11-15T11:00:27;3.70;;;2.10;;
3131;SDS011;62090;52.330;9.104;2022-11-15T11:03:01;2.50;;;1.67;;
3131;SDS011;62090;52.330;9.104;2022-11-15T11:05:34;4.83;;;2.07;;
3131;SDS011;62090;52.330;9.104;2022-11-15T11:08:19;2.13;;;1.93;;
3131;SDS011;62090;52.330;9.104;2022-11-15T11:10:55;2.83;;;1.97;;
3131;SDS011;62090;52.330;9.104;2022-11-15T11:13:30;7.87;;;2.30;;
3131;SDS011;62090;52.330;9.104;2022-11-15T11:16:14;3.47;;;2.10;;
3131;SDS011;62090;52.330;9.104;2022-11-15T11:18:54;2.60;;;2.07;;
3131;SDS011;62090;52.330;9.104;2022-11-15T11:21:36;4.77;;;1.63;;
3131;SDS011;62090;52.330;9.104;2022-11-15T11:24:15;3.10;;;2.20;;
3131;SDS011;62090;52.330;9.104;2022-11-15T11:26:59;9.43;;;1.90;;
3131;SDS011;62090;52.330;9.104;2022-11-15T11:29:46;10.40;;;2.17;;
3131;SDS011;62090;52.330;9.104;2022-11-15T11:32:28;3.50;;;2.20;;
3131;SDS011;62090;52.330;9.104;2022-11-15T11:35:09;2.63;;;2.40;;
3131;SDS011;62090;52.330;9.104;2022-11-15T11:37:46;2.80;;;2.33;;
3131;SDS011;62090;52.330;9.104;2022-11-15T11:40:30;4.80;;;2.27;;
3131;SDS011;62090;52.330;9.104;2022-11-15T11:43:10;4.63;;;2.43;;
3131;SDS011;62090;52.330;9.104;2022-11-15T11:45:53;4.20;;;1.90;;
3131;SDS011;62090;52.330;9.104;2022-11-15T11:48:40;2.33;;;1.80;;
3131;SDS011;62090;52.330;9.104;2022-11-15T11:51:12;2.50;;;1.80;;
3131;SDS011;62090;52.330;9.104;2022-11-15T11:53:49;4.47;;;2.50;;
3131;SDS011;62090;52.330;9.104;2022-11-15T11:56:25;2.30;;;2.00;;
3131;SDS011;62090;52.330;9.104;2022-11-15T11:59:04;3.70;;;2.07;;
3131;SDS011;62090;52.330;9.104;2022-11-15T12:01:40;1.70;;;1.60;;
3131;SDS011;62090;52.330;9.104;2022-11-15T12:04:13;2.67;;;1.57;;
3131;SDS011;62090;52.330;9.104;2022-11-15T12:06:49;4.80;;;1.90;;
3131;SDS011;62090;52.330;9.104;2022-11-15T12:09:26;2.93;;;1.90;;
3131;SDS011;62090;52.330;9.104;2022-11-15T12:12:02;3.43;;;2.03;;
3131;SDS011;62090;52.330;9.104;2022-11-15T12:14:42;3.93;;;1.70;;
3131;SDS011;62090;52.330;9.104;2022-11-15T12:17:17;4.67;;;1.83;;
3131;SDS011;62090;52.330;9.104;2022-11-15T12:19:55;2.77;;;1.90;;
3131;SDS011;62090;52.330;9.104;2022-11-15T12:22:28;2.57;;;1.47;;
3131;SDS011;62090;52.330;9.104;2022-11-15T12:25:08;4.50;;;2.17;;
3131;SDS011;62090;52.330;9.104;2022-11-15T12:27:48;3.03;;;1.87;;
3131;SDS011;62090;52.330;9.104;2022-11-15T12:30:27;3.03;;;1.63;;
3131;SDS011;62090;52.330;9.104;2022-11-15T12:33:30;4.87;;;2.30;;
3131;SDS011;62090;52.330;9.104;2022-11-15T12:36:04;2.30;;;2.10;;
3131;SDS011;62090;52.330;9.104;2022-11-15T12:38:52;3.37;;;2.00;;
3131;SDS011;62090;52.330;9.104;2022-11-15T12:41:25;4.00;;;1.80;;
3131;SDS011;62090;52.330;9.104;2022-11-15T12:43:56;2.83;;;1.97;;
3131;SDS011;62090;52.330;9.104;2022-11-15T12:49:42;6.63;;;2.43;;
3131;SDS011;62090;52.330;9.104;2022-11-15T12:52:18;4.20;;;2.20;;
3131;SDS011;62090;52.330;9.104;2022-11-15T12:55:02;4.07;;;2.37;;
3131;SDS011;62090;52.330;9.104;2022-11-15T13:00:56;5.50;;;1.90;;
3131;SDS011;62090;52.330;9.104;2022-11-15T13:03:29;4.83;;;2.27;;
3131;SDS011;62090;52.330;9.104;2022-11-15T13:06:09;3.20;;;2.00;;
3131;SDS011;62090;52.330;9.104;2022-11-15T13:15:32;3.30;;;2.17;;
3131;SDS011;62090;52.330;9.104;2022-11-15T13:21:19;4.20;;;1.90;;
3131;SDS011;62090;52.330;9.104;2022-11-15T13:24:04;3.17;;;2.30;;
3131;SDS011;62090;52.330;9.104;2022-11-15T13:26:44;2.07;;;1.80;;
3131;SDS011;62090;52.330;9.104;2022-11-15T13:29:19;4.50;;;2.53;;
3131;SDS011;62090;52.330;9.104;2022-11-15T13:31:51;4.83;;;2.17;;
3131;SDS011;62090;52.330;9.104;2022-11-15T13:34:27;3.43;;;1.67;;
3131;SDS011;62090;52.330;9.104;2022-11-15T13:37:29;3.70;;;2.10;;
3131;SDS011;62090;52.330;9.104;2022-11-15T13:40:22;5.13;;;2.40;;
3131;SDS011;62090;52.330;9.104;2022-11-15T13:42:57;2.93;;;1.77;;
3131;SDS011;62090;52.330;9.104;2022-11-15T13:45:28;10.13;;;1.97;;
3131;SDS011;62090;52.330;9.104;2022-11-15T13:47:59;4.30;;;2.63;;
3131;SDS011;62090;52.330;9.104;2022-11-15T13:50:37;5.33;;;2.27;;
3131;SDS011;62090;52.330;9.104;2022-11-15T13:53:09;6.47;;;2.20;;
3131;SDS011;62090;52.330;9.104;2022-11-15T13:55:40;3.37;;;2.00;;
3131;SDS011;62090;52.330;9.104;2022-11-15T13:58:11;5.50;;;2.17;;
3131;SDS011;62090;52.330;9.104;2022-11-15T14:00:46;4.57;;;2.37;;
3131;SDS011;62090;52.330;9.104;2022-11-15T14:03:17;3.20;;;2.67;;
3131;SDS011;62090;52.330;9.104;2022-11-15T14:06:03;2.90;;;2.43;;
3131;SDS011;62090;52.330;9.104;2022-11-15T14:08:39;5.50;;;2.43;;
3131;SDS011;62090;52.330;9.104;2022-11-15T14:11:13;2.90;;;1.70;;
3131;SDS011;62090;52.330;9.104;2022-11-15T14:14:00;4.70;;;2.00;;
3131;SDS011;62090;52.330;9.104;2022-11-15T14:16:40;4.63;;;2.57;;
3131;SDS011;62090;52.330;9.104;2022-11-15T14:19:12;5.47;;;2.30;;
3131;SDS011;62090;52.330;9.104;2022-11-15T14:22:12;4.97;;;2.40;;
3131;SDS011;62090;52.330;9.104;2022-11-15T14:24:46;3.60;;;2.20;;
3131;SDS011;62090;52.330;9.104;2022-11-15T14:27:35;5.33;;;2.60;;
3131;SDS011;62090;52.330;9.104;2022-11-15T14:30:05;3.53;;;2.23;;
3131;SDS011;62090;52.330;9.104;2022-11-15T14:32:43;3.70;;;2.20;;
3131;SDS011;62090;52.330;9.104;2022-11-15T14:35:15;3.37;;;1.90;;
3131;SDS011;62090;52.330;9.104;2022-11-15T14:37:49;13.97;;;8.30;;
3131;SDS011;62090;52.330;9.104;2022-11-15T14:40:19;6.13;;;3.27;;
3131;SDS011;62090;52.330;9.104;2022-11-15T14:42:52;3.13;;;2.03;;
3131;SDS011;62090;52.330;9.104;2022-11-15T14:45:23;8.10;;;2.60;;
3131;SDS011;62090;52.330;9.104;2022-11-15T14:47:53;6.93;;;2.50;;
3131;SDS011;62090;52.330;9.104;2022-11-15T14:50:23;2.50;;;2.07;;
3131;SDS011;62090;52.330;9.104;2022-11-15T14:52:57;4.23;;;2.50;;
3131;SDS011;62090;52.330;9.104;2022-11-15T14:55:28;7.50;;;2.73;;
3131;SDS011;62090;52.330;9.104;2022-11-15T14:58:03;7.63;;;2.60;;
3131;SDS011;62090;52.330;9.104;2022-11-15T15:00:38;3.30;;;2.80;;
3131;SDS011;62090;52.330;9.104;2022-11-15T15:03:10;5.47;;;2.57;;
3131;SDS011;62090;52.330;9.104;2022-11-15T15:05:41;3.90;;;2.17;;
3131;SDS011;62090;52.330;9.104;2022-11-15T15:08:15;4.80;;;3.00;;
3131;SDS011;62090;52.330;9.104;2022-11-15T15:10:46;4.77;;;2.67;;
3131;SDS011;62090;52.330;9.104;2022-11-15T15:13:17;4.53;;;2.63;;
3131;SDS011;62090;52.330;9.104;2022-11-15T15:15:49;5.23;;;2.43;;
3131;SDS011;62090;52.330;9.104;2022-11-15T15:18:21;6.27;;;2.87;;
3131;SDS011;62090;52.330;9.104;2022-11-15T15:20:54;3.10;;;2.37;;
3131;SDS011;62090;52.330;9.104;2022-11-15T15:23:32;9.00;;;2.93;;
3131;SDS011;62090;52.330;9.104;2022-11-15T15:26:04;8.10;;;4.43;;
3131;SDS011;62090;52.330;9.104;2022-11-15T15:28:34;5.37;;;3.27;;
3131;SDS011;62090;52.330;9.104;2022-11-15T15:31:07;4.60;;;2.53;;
3131;SDS011;62090;52.330;9.104;2022-11-15T15:33:38;3.63;;;2.27;;
3131;SDS011;62090;52.330;9.104;2022-11-15T15:36:10;5.80;;;3.20;;
3131;SDS011;62090;52.330;9.104;2022-11-15T15:38:43;4.70;;;3.00;;
3131;SDS011;62090;52.330;9.104;2022-11-15T15:41:15;11.50;;;3.50;;
3131;SDS011;62090;52.330;9.104;2022-11-15T15:43:46;4.47;;;2.27;;
3131;SDS011;62090;52.330;9.104;2022-11-15T15:46:17;4.93;;;2.90;;
3131;SDS011;62090;52.330;9.104;2022-11-15T15:48:50;5.50;;;2.50;;
3131;SDS011;62090;52.330;9.104;2022-11-15T15:51:22;6.83;;;3.17;;
3131;SDS011;62090;52.330;9.104;2022-11-15T15:53:54;5.07;;;2.60;;
3131;SDS011;62090;52.330;9.104;2022-11-15T15:56:25;4.23;;;2.70;;
3131;SDS011;62090;52.330;9.104;2022-11-15T15:58:56;6.00;;;3.07;;
3131;SDS011;62090;52.330;9.104;2022-11-15T16:01:28;8.77;;;4.53;;
3131;SDS011;62090;52.330;9.104;2022-11-15T16:03:58;5.37;;;3.03;;
3131;SDS011;62090;52.330;9.104;2022-11-15T16:06:32;20.97;;;7.83;;
3131;SDS011;62090;52.330;9.104;2022-11-15T16:09:08;8.03;;;4.60;;
3131;SDS011;62090;52.330;9.104;2022-11-15T16:11:43;7.03;;;3.37;;
3131;SDS011;62090;52.330;9.104;2022-11-15T16:14:15;45.07;;;18.80;;
3131;SDS011;62090;52.330;9.104;2022-11-15T16:16:45;18.83;;;6.38;;
3131;SDS011;62090;52.330;9.104;2022-11-15T16:19:16;13.27;;;4.60;;
3131;SDS011;62090;52.330;9.104;2022-11-15T16:21:46;7.37;;;4.83;;
3131;SDS011;62090;52.330;9.104;2022-11-15T16:24:18;7.57;;;5.37;;
3131;SDS011;62090;52.330;9.104;2022-11-15T16:26:49;5.67;;;4.50;;
3131;SDS011;62090;52.330;9.104;2022-11-15T16:29:22;6.33;;;3.63;;
3131;SDS011;62090;52.330;9.104;2022-11-15T16:31:53;7.17;;;3.50;;
3131;SDS011;62090;52.330;9.104;2022-11-15T16:34:23;7.80;;;3.50;;
3131;SDS011;62090;52.330;9.104;2022-11-15T16:36:58;4.73;;;3.37;;
3131;SDS011;62090;52.330;9.104;2022-11-15T16:39:31;9.47;;;5.50;;
3131;SDS011;62090;52.330;9.104;2022-11-15T16:42:04;10.13;;;5.30;;
3131;SDS011;62090;52.330;9.104;2022-11-15T16:44:34;8.40;;;4.87;;
3131;SDS011;62090;52.330;9.104;2022-11-15T16:47:10;6.33;;;3.70;;
3131;SDS011;62090;52.330;9.104;2022-11-15T16:49:45;10.43;;;5.13;;
3131;SDS011;62090;52.330;9.104;2022-11-15T16:52:15;8.67;;;3.83;;
3131;SDS011;62090;52.330;9.104;2022-11-15T16:54:50;6.17;;;3.67;;
3131;SDS011;62090;52.330;9.104;2022-11-15T16:57:20;5.53;;;3.30;;
3131;SDS011;62090;52.330;9.104;2022-11-15T16:59:52;7.00;;;3.30;;
3131;SDS011;62090;52.330;9.104;2022-11-15T17:02:23;5.27;;;3.07;;